Time;durP1;ratioP1;P1;durP2;ratioP2;P2;SDS_P1;SDS_P2;PMS_P1;PMS_P2;Temp;Humidity;BMP_temperature;BMP_pressure;BME280_temperature;BME280_humidity;BME280_pressure;Samples;Min_cycle;Max_cycle;Signal;HPM_P1;HPM_P2
2022/01/19 00:01:28;;;;;;;4.13;3.23;;;;;;;5.31;100.00;100739.34;5078724;27;20200;-83
2022/01/19 00:03:57;;;;;;;3.63;2.83;;;;;;;5.28;100.00;100736.75;5073397;27;20279;-83
2022/01/19 00:06:25;;;;;;;3.53;2.53;;;;;;;5.27;100.00;100735.03;5077903;27;20192;-83
2022/01/19 00:08:55;;;;;;;2.63;2.43;;;;;;;5.20;100.00;100736.00;5076127;27;20216;-82
2022/01/19 00:11:23;;;;;;;3.10;2.27;;;;;;;5.21;100.00;100736.00;5069664;28;20655;-82
2022/01/19 00:13:52;;;;;;;2.33;2.00;;;;;;;5.13;100.00;100719.50;5078564;27;20196;-82
2022/01/19 00:16:22;;;;;;;3.13;2.30;;;;;;;5.15;100.00;100728.22;5080334;27;20219;-82
2022/01/19 00:18:50;;;;;;;2.30;2.03;;;;;;;5.18;100.00;100720.28;5067551;27;20274;-82
2022/01/19 00:21:18;;;;;;;2.53;2.30;;;;;;;5.22;100.00;100695.72;5072400;27;20249;-83
2022/01/19 00:23:47;;;;;;;2.60;2.40;;;;;;;5.19;100.00;100677.34;5080519;27;20192;-83
2022/01/19 00:26:17;;;;;;;3.63;2.20;;;;;;;5.05;100.00;100664.47;5074021;27;20193;-83
2022/01/19 00:28:45;;;;;;;2.70;2.00;;;;;;;5.09;100.00;100657.41;5074495;28;20233;-83
2022/01/19 00:31:13;;;;;;;3.00;2.20;;;;;;;5.16;100.00;100659.03;5078691;27;20208;-82
2022/01/19 00:33:42;;;;;;;3.17;2.03;;;;;;;5.16;100.00;100649.38;5080088;27;20279;-83
2022/01/19 00:36:11;;;;;;;2.60;2.40;;;;;;;5.15;100.00;100660.78;5062683;27;20217;-82
2022/01/19 00:38:39;;;;;;;2.60;2.40;;;;;;;5.10;100.00;100659.13;5076466;27;20237;-82
2022/01/19 00:41:07;;;;;;;2.50;2.30;;;;;;;5.11;100.00;100656.47;5166134;27;20217;-83
2022/01/19 00:43:38;;;;;;;2.70;2.23;;;;;;;5.11;100.00;100658.22;5173319;27;20226;-82
2022/01/19 00:46:07;;;;;;;2.40;2.20;;;;;;;5.02;100.00;100674.16;5179080;27;20275;-82
2022/01/19 00:48:36;;;;;;;4.00;2.50;;;;;;;5.14;100.00;100682.69;5170846;27;20220;-83
2022/01/19 00:51:04;;;;;;;4.37;2.43;;;;;;;5.15;100.00;100683.56;5171872;27;20644;-82
2022/01/19 00:53:33;;;;;;;3.57;2.53;;;;;;;5.15;100.00;100683.56;5169634;27;20214;-82
2022/01/19 00:56:01;;;;;;;2.50;2.00;;;;;;;4.95;100.00;100673.41;5176531;27;20197;-82
2022/01/19 00:58:29;;;;;;;3.03;1.90;;;;;;;5.00;100.00;100684.69;5091915;28;20689;-83
2022/01/19 01:00:58;;;;;;;2.90;1.60;;;;;;;5.08;100.00;100688.03;5089790;28;20184;-83
2022/01/19 01:03:27;;;;;;;3.70;1.87;;;;;;;5.06;100.00;100683.72;5085213;28;20195;-83
2022/01/19 01:05:55;;;;;;;1.83;1.63;;;;;;;5.13;100.00;100664.34;5074033;28;20204;-82
2022/01/19 01:08:26;;;;;;;3.40;1.93;;;;;;;5.01;100.00;100656.66;5071110;28;20219;-83
2022/01/19 01:10:54;;;;;;;1.80;1.60;;;;;;;5.02;100.00;100658.38;5065580;28;20192;-82
2022/01/19 01:13:30;;;;;;;3.00;2.53;;;;;;;5.02;100.00;100661.91;5072778;28;20192;-83
2022/01/19 01:16:03;;;;;;;2.40;1.90;;;;;;;5.07;100.00;100661.81;5086874;27;20205;-83
2022/01/19 01:18:35;;;;;;;2.10;1.90;;;;;;;5.10;100.00;100659.13;5152514;27;20185;-83
2022/01/19 01:21:04;;;;;;;1.90;1.80;;;;;;;5.02;100.00;100653.13;5149110;27;20198;-82
2022/01/19 01:23:35;;;;;;;1.90;1.70;;;;;;;4.81;100.00;100649.13;5158930;27;20196;-83
2022/01/19 01:26:09;;;;;;;2.23;1.40;;;;;;;4.99;100.00;100637.44;5173832;27;20252;-83
2022/01/19 01:28:38;;;;;;;2.80;1.50;;;;;;;4.84;100.00;100636.81;5175283;27;20219;-82
2022/01/19 01:31:09;;;;;;;1.67;1.13;;;;;;;4.76;100.00;100637.84;5174139;27;20185;-83
2022/01/19 01:33:38;;;;;;;2.33;1.30;;;;;;;4.85;100.00;100624.56;5179109;27;20190;-83
2022/01/19 01:36:07;;;;;;;1.73;1.10;;;;;;;4.87;100.00;100607.03;5177170;27;20200;-82
2022/01/19 01:38:37;;;;;;;1.53;1.30;;;;;;;4.85;100.00;100593.06;5170221;27;20197;-83
2022/01/19 01:41:13;;;;;;;1.60;1.47;;;;;;;4.89;100.00;100595.59;5179011;27;20212;-83
2022/01/19 01:43:42;;;;;;;1.60;1.40;;;;;;;4.79;100.00;100585.28;5166855;27;20201;-82
2022/01/19 01:46:25;;;;;;;1.20;1.10;;;;;;;4.73;100.00;100588.00;5175679;27;20211;-82
2022/01/19 01:48:53;;;;;;;2.13;1.20;;;;;;;4.89;100.00;100598.22;5113692;28;20240;-82
2022/01/19 01:54:12;;;;;;;1.60;1.00;;;;;;;4.68;100.00;100621.34;5044345;28;20206;-82
2022/01/19 01:56:41;;;;;;;1.30;1.17;;;;;;;4.71;100.00;100616.03;5127640;28;20773;-82
2022/01/19 01:59:10;;;;;;;1.73;1.20;;;;;;;4.72;100.00;100605.50;5125800;28;20202;-82
2022/01/19 02:01:41;;;;;;;1.83;1.20;;;;;;;4.70;100.00;100614.31;5128857;28;20191;-82
2022/01/19 02:04:09;;;;;;;1.23;1.10;;;;;;;4.73;100.00;100611.63;5128169;28;20222;-82
2022/01/19 02:06:53;;;;;;;3.23;1.73;;;;;;;4.53;100.00;100607.56;5151871;27;20197;-81
2022/01/19 02:09:24;;;;;;;2.50;1.30;;;;;;;4.62;100.00;100592.56;5193679;27;20209;-82
2022/01/19 02:23:17;;;;;;;1.20;1.10;;;;;;;4.57;100.00;100553.31;5179058;27;20185;-83
2022/01/19 02:25:48;;;;;;;2.13;1.20;;;;;;;4.49;100.00;100555.19;5172715;27;20681;-82
2022/01/19 02:42:24;;;;;;;1.37;1.17;;;;;;;4.49;100.00;100526.34;5181743;27;20249;-82
2022/01/19 02:50:28;;;;;;;2.33;1.43;;;;;;;4.27;100.00;100513.59;5181569;27;20221;-82
2022/01/19 02:52:58;;;;;;;1.40;1.30;;;;;;;4.36;100.00;100515.19;5174949;27;20196;-83
2022/01/19 02:55:28;;;;;;;2.33;1.40;;;;;;;4.15;100.00;100512.91;5174967;27;20188;-82
2022/01/19 02:57:57;;;;;;;2.63;1.53;;;;;;;4.15;100.00;100512.91;5172197;27;20185;-83
2022/01/19 03:08:47;;;;;;;2.93;1.80;;;;;;;4.19;100.00;100502.34;5176400;27;20184;-82
2022/01/19 03:11:17;;;;;;;2.20;2.00;;;;;;;4.20;100.00;100493.59;5159421;27;20212;-82
2022/01/19 03:13:46;;;;;;;2.80;2.27;;;;;;;4.22;100.00;100489.19;5178577;27;20200;-83
2022/01/19 03:16:15;;;;;;;2.97;2.00;;;;;;;4.23;100.00;100483.03;5175109;27;20205;-83
2022/01/19 03:18:44;;;;;;;2.37;2.03;;;;;;;4.31;100.00;100485.53;5176177;27;20204;-82
2022/01/19 03:21:13;;;;;;;3.10;2.43;;;;;;;4.27;100.00;100487.34;5174905;27;20204;-82
2022/01/19 03:23:43;;;;;;;2.90;2.60;;;;;;;4.23;100.00;100479.56;5168637;27;20197;-82
2022/01/19 03:26:11;;;;;;;3.13;2.83;;;;;;;4.23;100.00;100479.56;5168637;27;20185;-82
2022/01/19 03:28:39;;;;;;;5.93;2.80;;;;;;;4.26;100.00;100461.16;5171065;27;20620;-82
2022/01/19 03:31:08;;;;;;;3.23;2.93;;;;;;;4.30;100.00;100468.94;5167868;27;20224;-83
2022/01/19 03:33:37;;;;;;;4.33;3.00;;;;;;;4.24;100.00;100458.53;5171634;27;20192;-82
2022/01/19 03:36:05;;;;;;;3.17;2.87;;;;;;;4.27;100.00;100452.41;5176140;27;20644;-83
2022/01/19 03:38:34;;;;;;;6.00;3.03;;;;;;;4.20;100.00;100459.50;5168361;27;20673;-83
2022/01/19 03:41:04;;;;;;;3.23;2.93;;;;;;;4.20;100.00;100459.50;5176954;27;20298;-83
2022/01/19 03:43:33;;;;;;;3.57;3.13;;;;;;;4.24;100.00;100448.06;5174436;27;20218;-83
2022/01/19 03:46:03;;;;;;;3.47;3.10;;;;;;;4.27;100.00;100439.28;5173135;27;20193;-83
2022/01/19 03:48:53;;;;;;;2.53;2.33;;;;;;;4.35;100.00;100442.66;5170269;27;20253;-82
2022/01/19 03:51:21;;;;;;;2.87;2.67;;;;;;;4.27;100.00;100429.66;5172919;27;20238;-83
2022/01/19 03:53:50;;;;;;;3.77;2.97;;;;;;;4.33;100.00;100426.03;5177006;27;20185;-83
2022/01/19 03:56:20;;;;;;;3.03;2.73;;;;;;;4.36;100.00;100417.28;5139424;27;20694;-83
2022/01/19 03:58:49;;;;;;;3.07;2.70;;;;;;;4.14;100.00;100417.63;5176903;27;20200;-83
2022/01/19 04:01:17;;;;;;;3.40;2.90;;;;;;;4.26;100.00;100411.34;5172281;27;20195;-83
2022/01/19 04:04:07;;;;;;;3.60;3.30;;;;;;;4.26;100.00;100411.34;5168825;27;20215;-83
2022/01/19 04:06:53;;;;;;;4.00;3.60;;;;;;;4.25;100.00;100396.50;5173809;27;20197;-82
2022/01/19 04:09:24;;;;;;;4.10;3.33;;;;;;;4.23;100.00;100390.41;5176731;27;20189;-83
2022/01/19 04:11:54;;;;;;;3.97;3.33;;;;;;;4.27;100.00;100389.47;5172060;27;20276;-82
2022/01/19 04:14:22;;;;;;;4.20;3.63;;;;;;;4.27;100.00;100389.47;5176094;27;20192;-82
2022/01/19 04:16:52;;;;;;;4.20;3.77;;;;;;;4.26;100.00;100372.88;5141200;27;20240;-83
2022/01/19 04:19:41;;;;;;;4.77;3.97;;;;;;;4.19;100.00;100368.63;5179832;27;20308;-82
2022/01/19 04:22:13;;;;;;;4.40;3.87;;;;;;;4.19;100.00;100365.13;5173833;27;20209;-83
2022/01/19 04:24:42;;;;;;;4.20;3.80;;;;;;;4.19;100.00;100365.13;5174853;27;20237;-83
2022/01/19 04:30:06;;;;;;;6.30;4.47;;;;;;;4.13;100.00;100344.25;5179992;27;20236;-82
2022/01/19 04:32:41;;;;;;;5.47;4.77;;;;;;;4.17;100.00;100354.69;5174957;27;20189;-83
2022/01/19 04:35:11;;;;;;;4.83;4.33;;;;;;;4.12;100.00;100347.78;5178465;27;20192;-83
2022/01/19 04:54:51;;;;;;;6.40;4.60;;;;;;;4.23;100.00;100349.28;5073677;28;20219;-83
2022/01/19 05:05:57;;;;;;;6.07;4.70;;;;;;;4.24;100.00;100331.81;5073583;27;20200;-83
2022/01/19 05:08:50;;;;;;;6.10;5.33;;;;;;;4.08;100.00;100339.13;5081314;27;20260;-82
2022/01/19 05:14:05;;;;;;;6.63;5.70;;;;;;;4.25;100.00;100313.44;5075052;27;20196;-83
2022/01/19 05:16:34;;;;;;;8.63;5.87;;;;;;;4.27;100.00;100311.66;5081868;27;20184;-83
2022/01/19 05:19:03;;;;;;;6.27;5.67;;;;;;;4.27;100.00;100311.66;5080066;27;20208;-83
2022/01/19 05:21:31;;;;;;;7.37;6.13;;;;;;;4.07;100.00;100316.41;5083232;27;20673;-83
2022/01/19 05:24:03;;;;;;;7.80;6.60;;;;;;;4.22;100.00;100318.72;5077121;28;20204;-83
2022/01/19 05:26:34;;;;;;;7.77;6.30;;;;;;;4.18;100.00;100322.31;5082009;28;20220;-83
2022/01/19 05:29:02;;;;;;;8.30;6.40;;;;;;;4.18;100.00;100314.44;5075610;27;20731;-84
2022/01/19 05:31:30;;;;;;;6.03;5.37;;;;;;;3.97;100.00;100310.50;5080470;27;20275;-82
2022/01/19 05:34:01;;;;;;;7.63;5.27;;;;;;;3.85;100.00;100297.59;5084571;27;20184;-83
2022/01/19 05:36:29;;;;;;;5.93;4.90;;;;;;;3.85;100.00;100292.34;5085496;27;20200;-83
2022/01/19 05:38:57;;;;;;;6.87;5.10;;;;;;;3.99;100.00;100286.84;5079974;27;20204;-83
2022/01/19 05:41:25;;;;;;;6.73;5.40;;;;;;;4.04;100.00;100287.63;5169706;27;20726;-83
2022/01/19 05:43:57;;;;;;;7.00;5.23;;;;;;;4.04;100.00;100287.63;5172104;27;20211;-83
2022/01/19 05:46:25;;;;;;;5.47;4.73;;;;;;;3.90;100.00;100282.66;5171580;27;20197;-82
2022/01/19 05:48:53;;;;;;;5.37;4.87;;;;;;;3.82;100.00;100247.00;5170574;27;20197;-83
2022/01/19 05:51:23;;;;;;;5.87;5.37;;;;;;;3.64;100.00;100229.88;5178015;27;20262;-82
2022/01/19 05:53:51;;;;;;;7.07;5.63;;;;;;;3.81;100.00;100219.94;5169001;27;20199;-82
2022/01/19 05:56:20;;;;;;;7.30;6.60;;;;;;;3.88;100.00;100213.69;5175052;27;20194;-83
2022/01/19 05:58:48;;;;;;;9.67;6.47;;;;;;;3.85;100.00;100208.47;5178025;27;20189;-83
2022/01/19 06:01:17;;;;;;;8.07;5.83;;;;;;;3.73;100.00;100217.44;5173651;27;20200;-83
2022/01/19 06:03:46;;;;;;;6.90;6.20;;;;;;;3.79;100.00;100211.25;5177736;27;20231;-83
2022/01/19 06:06:15;;;;;;;7.70;6.47;;;;;;;3.79;100.00;100215.63;5173851;27;20197;-83
2022/01/19 06:08:48;;;;;;;8.43;5.93;;;;;;;3.66;100.00;100221.06;5171506;27;20196;-83
2022/01/19 06:11:17;;;;;;;8.73;6.83;;;;;;;3.77;100.00;100215.66;5177565;27;20261;-83
2022/01/19 06:13:45;;;;;;;9.23;7.10;;;;;;;3.79;100.00;100216.50;5172861;27;20201;-84
2022/01/19 06:16:13;;;;;;;9.77;7.77;;;;;;;3.86;100.00;100219.81;5170774;27;20193;-83
2022/01/19 06:18:42;;;;;;;8.53;7.10;;;;;;;3.61;100.00;100220.31;5173294;27;20217;-83
2022/01/19 06:21:12;;;;;;;7.70;6.90;;;;;;;3.72;100.00;100207.00;5172791;27;20201;-84
2022/01/19 06:23:41;;;;;;;8.03;7.23;;;;;;;3.87;100.00;100213.72;5170033;27;20201;-84
2022/01/19 06:26:10;;;;;;;8.23;6.67;;;;;;;3.76;100.00;100219.16;5168917;27;20218;-83
2022/01/19 06:28:38;;;;;;;6.80;6.10;;;;;;;3.51;100.00;100228.38;5173730;27;20208;-83
2022/01/19 06:31:07;;;;;;;7.60;6.80;;;;;;;3.74;100.00;100223.56;5177083;27;20213;-83
2022/01/19 06:33:35;;;;;;;8.97;7.67;;;;;;;3.70;100.00;100214.91;5176273;27;20193;-83
2022/01/19 06:36:04;;;;;;;8.87;7.00;;;;;;;3.95;100.00;100211.78;5172329;27;20688;-84
2022/01/19 06:38:35;;;;;;;7.63;6.83;;;;;;;3.76;100.00;100210.41;5171873;27;20207;-83
2022/01/19 06:41:03;;;;;;;8.77;6.77;;;;;;;3.82;100.00;100207.69;5167785;27;20228;-83
2022/01/19 06:43:33;;;;;;;9.17;7.07;;;;;;;3.86;100.00;100202.38;5170939;27;20193;-83
2022/01/19 06:46:02;;;;;;;8.63;6.93;;;;;;;3.72;100.00;100197.38;5173558;27;20201;-83
2022/01/19 06:48:30;;;;;;;9.33;7.60;;;;;;;3.81;100.00;100201.59;5172234;27;20271;-83
2022/01/19 06:50:59;;;;;;;8.77;7.30;;;;;;;3.71;100.00;100197.44;5163670;27;20265;-83
2022/01/19 06:53:27;;;;;;;9.00;7.57;;;;;;;3.96;100.00;100200.44;5176419;27;20194;-83
2022/01/19 06:55:57;;;;;;;8.63;7.20;;;;;;;3.82;100.00;100202.44;5170922;27;20185;-82
2022/01/19 06:58:25;;;;;;;9.23;7.70;;;;;;;3.86;100.00;100201.47;5170920;27;20470;-83
2022/01/19 07:00:56;;;;;;;10.23;8.03;;;;;;;3.88;100.00;100195.34;5168191;27;20205;-84
2022/01/19 07:03:26;;;;;;;8.17;7.30;;;;;;;4.01;100.00;100190.69;5167865;27;20261;-83
2022/01/19 07:05:54;;;;;;;9.03;7.87;;;;;;;3.90;100.00;100179.59;5171987;27;20199;-83
2022/01/19 07:08:22;;;;;;;9.07;7.70;;;;;;;3.86;100.00;100185.75;5167285;27;20197;-84
2022/01/19 07:10:51;;;;;;;9.27;7.53;;;;;;;3.89;100.00;100190.97;5173122;27;20189;-84
2022/01/19 07:13:19;;;;;;;9.80;7.97;;;;;;;3.86;100.00;100188.38;5169562;27;20189;-83
2022/01/19 07:15:49;;;;;;;8.30;7.47;;;;;;;3.89;100.00;100185.72;5176269;27;20192;-83
2022/01/19 07:18:19;;;;;;;9.10;8.07;;;;;;;3.78;100.00;100179.84;5174921;27;20196;-83
2022/01/19 07:20:47;;;;;;;9.83;8.33;;;;;;;3.82;100.00;100178.88;5170306;27;20191;-83
2022/01/19 07:23:15;;;;;;;10.27;8.10;;;;;;;3.86;100.00;100180.53;5170332;27;20246;-83
2022/01/19 07:25:44;;;;;;;9.97;8.87;;;;;;;3.92;100.00;100183.03;5176190;27;20208;-83
2022/01/19 07:28:12;;;;;;;10.30;8.10;;;;;;;3.90;100.00;100183.06;5168136;27;20208;-83
2022/01/19 07:30:40;;;;;;;10.80;8.60;;;;;;;3.69;100.00;100170.41;5167331;27;20204;-83
2022/01/19 07:33:09;;;;;;;9.60;8.00;;;;;;;3.81;100.00;100179.75;5167135;27;20215;-83
2022/01/19 07:35:39;;;;;;;10.20;8.53;;;;;;;3.94;100.00;100162.88;5083492;28;20199;-83
2022/01/19 07:38:08;;;;;;;11.17;8.80;;;;;;;3.85;100.00;100169.19;5091244;28;20241;-83
2022/01/19 07:40:37;;;;;;;11.83;8.47;;;;;;;3.81;100.00;100162.28;5081397;28;20231;-83
2022/01/19 07:43:07;;;;;;;9.23;7.97;;;;;;;3.69;100.00;100158.16;5088191;28;20359;-83
2022/01/19 07:45:35;;;;;;;9.80;8.70;;;;;;;3.76;100.00;100164.13;5080824;28;20195;-83
2022/01/19 07:48:04;;;;;;;10.27;8.07;;;;;;;3.71;100.00;100160.75;5089801;28;20199;-84
2022/01/19 07:50:32;;;;;;;11.43;9.27;;;;;;;3.70;100.00;100159.88;5080069;28;20252;-83
2022/01/19 07:53:02;;;;;;;10.57;8.67;;;;;;;3.72;100.00;100159.84;5081939;28;20269;-83
2022/01/19 07:55:30;;;;;;;11.90;9.17;;;;;;;3.86;100.00;100154.31;5082855;27;20207;-84
2022/01/19 07:57:59;;;;;;;10.43;8.73;;;;;;;3.57;100.00;100154.91;5078177;27;20200;-84
2022/01/19 08:00:28;;;;;;;11.77;8.87;;;;;;;3.44;100.00;100152.53;5082313;27;20218;-83
2022/01/19 08:02:57;;;;;;;14.60;9.70;;;;;;;3.40;100.00;100143.00;5081556;27;20660;-83
2022/01/19 08:05:25;;;;;;;14.70;10.00;;;;;;;3.73;100.00;100143.22;5084287;27;20208;-83
2022/01/19 08:07:54;;;;;;;15.03;10.03;;;;;;;3.73;100.00;100135.38;5084842;27;20237;-83
2022/01/19 08:10:24;;;;;;;13.10;9.77;;;;;;;3.77;100.00;100131.81;5073640;28;20193;-83
2022/01/19 08:12:52;;;;;;;15.20;10.50;;;;;;;3.73;100.00;100131.00;5083041;27;20220;-84
2022/01/19 08:15:20;;;;;;;11.30;8.97;;;;;;;3.87;100.00;100122.00;5081143;27;20188;-83
2022/01/19 08:17:48;;;;;;;14.10;8.50;;;;;;;3.76;100.00;100118.72;5081464;27;20188;-82
2022/01/19 08:20:18;;;;;;;9.40;8.40;;;;;;;3.62;100.00;100117.25;5079512;27;20200;-82
2022/01/19 08:22:46;;;;;;;11.33;8.33;;;;;;;3.70;100.00;100117.09;5082906;27;20200;-82
2022/01/19 08:25:14;;;;;;;13.93;8.90;;;;;;;3.70;100.00;100101.38;5073359;28;20630;-82
2022/01/19 08:27:44;;;;;;;11.80;8.40;;;;;;;3.81;100.00;100106.41;5073332;28;20313;-83
2022/01/19 08:30:16;;;;;;;11.43;8.50;;;;;;;3.77;100.00;100100.38;5082818;27;20200;-82
2022/01/19 08:32:44;;;;;;;10.80;8.53;;;;;;;3.83;100.00;100091.50;5076356;27;20385;-82
2022/01/19 08:35:13;;;;;;;12.10;8.03;;;;;;;3.64;100.00;100091.03;5082529;27;20204;-82
2022/01/19 08:37:42;;;;;;;11.80;8.30;;;;;;;3.54;100.00;100090.34;5083565;27;20252;-82
2022/01/19 08:40:12;;;;;;;13.10;8.70;;;;;;;3.55;100.00;100085.97;5116674;27;20213;-82
2022/01/19 08:42:42;;;;;;;16.13;8.70;;;;;;;3.50;100.00;100090.47;5179518;27;20185;-83
2022/01/19 08:45:13;;;;;;;11.33;8.33;;;;;;;3.49;100.00;100084.34;5175884;27;20196;-83
2022/01/19 08:47:43;;;;;;;15.37;8.93;;;;;;;3.32;100.00;100095.16;5173293;27;20185;-82
2022/01/19 08:50:14;;;;;;;12.87;9.27;;;;;;;3.27;100.00;100083.91;5179229;27;20189;-82
2022/01/19 08:52:42;;;;;;;14.90;9.57;;;;;;;3.30;100.00;100077.75;5176100;27;20221;-82
2022/01/19 08:55:11;;;;;;;12.30;9.53;;;;;;;3.34;100.00;100076.78;5179276;27;20200;-82
2022/01/19 08:57:40;;;;;;;14.23;9.30;;;;;;;3.53;100.00;100074.66;5173944;27;20677;-83
2022/01/19 09:00:14;;;;;;;13.47;9.13;;;;;;;3.51;100.00;100066.84;5166463;27;20205;-83
2022/01/19 09:02:42;;;;;;;130.50;23.23;;;;;;;3.57;100.00;100060.59;5176585;27;20197;-83
2022/01/19 09:05:12;;;;;;;49.03;15.80;;;;;;;3.74;100.00;100055.88;5180049;27;20213;-83
2022/01/19 09:07:41;;;;;;;82.70;18.60;;;;;;;3.79;100.00;100055.78;5171940;27;20217;-84
2022/01/19 09:10:12;;;;;;;43.67;13.47;;;;;;;4.00;100.00;100053.53;5175119;27;20217;-83
2022/01/19 09:12:41;;;;;;;41.03;13.60;;;;;;;4.14;100.00;100058.44;5176365;27;20308;-83
2022/01/19 09:15:15;;;;;;;24.30;11.53;;;;;;;4.06;100.00;100057.78;5175656;27;20193;-84
2022/01/19 09:17:43;;;;;;;13.03;9.30;;;;;;;4.01;100.00;100063.13;5177137;27;20203;-83
2022/01/19 09:20:14;;;;;;;28.53;11.30;;;;;;;3.94;100.00;100061.53;5178329;27;20299;-83
2022/01/19 09:22:42;;;;;;;16.73;10.27;;;;;;;3.92;100.00;100054.63;5174952;27;20192;-83
2022/01/19 09:25:12;;;;;;;18.90;11.23;;;;;;;3.93;100.00;100057.19;5179051;27;20185;-83
2022/01/19 09:27:43;;;;;;;22.87;11.03;;;;;;;3.96;100.00;100046.66;5177647;27;20208;-83
2022/01/19 09:30:16;;;;;;;31.77;12.80;;;;;;;3.94;100.00;100043.19;5192619;27;20193;-80
2022/01/19 09:32:54;;;;;;;14.37;9.27;;;;;;;4.14;100.00;100031.38;5195944;27;20212;-80
2022/01/19 09:35:25;;;;;;;14.97;10.00;;;;;;;4.12;100.00;100026.19;5187847;27;20265;-83
2022/01/19 09:37:55;;;;;;;16.20;10.00;;;;;;;4.09;100.00;100028.88;5178041;27;20232;-83
2022/01/19 09:40:29;;;;;;;19.80;11.13;;;;;;;4.29;100.00;100029.25;5180943;27;20212;-82
2022/01/19 09:43:07;;;;;;;12.67;9.40;;;;;;;4.29;100.00;100023.16;5171518;27;20197;-82
2022/01/19 09:45:38;;;;;;;67.33;17.03;;;;;;;4.29;100.00;100013.53;5167141;27;20245;-82
2022/01/19 09:48:08;;;;;;;23.60;11.03;;;;;;;4.49;100.00;100006.91;5123604;27;20253;-82
2022/01/19 09:50:37;;;;;;;21.20;9.97;;;;;;;4.38;100.00;100007.19;5178263;27;20224;-82
2022/01/19 09:53:08;;;;;;;14.30;9.30;;;;;;;4.54;100.00;99999.81;5170642;27;20303;-82
2022/01/19 09:55:38;;;;;;;16.97;10.10;;;;;;;4.58;100.00;99997.06;5178317;27;20189;-82
2022/01/19 09:58:07;;;;;;;14.80;9.13;;;;;;;4.64;100.00;99990.78;5178177;27;20189;-82
2022/01/19 10:00:39;;;;;;;12.37;9.00;;;;;;;4.64;100.00;99984.69;5173000;27;20257;-82
2022/01/19 10:03:19;;;;;;;13.97;9.00;;;;;;;4.59;100.00;99983.03;5180860;27;20223;-82
2022/01/19 10:05:59;;;;;;;23.70;11.37;;;;;;;4.85;100.00;99963.97;5176419;27;20193;-82
2022/01/19 10:08:35;;;;;;;21.47;10.20;;;;;;;4.87;100.00;99974.41;5172674;27;20192;-83
2022/01/19 10:11:14;;;;;;;27.73;11.47;;;;;;;4.99;100.00;99957.44;5094258;28;20195;-82
2022/01/19 10:19:24;;;;;;;21.30;9.60;;;;;;;4.98;100.00;99934.75;5093438;28;20203;-83
2022/01/19 10:22:01;;;;;;;63.97;15.97;;;;;;;4.72;100.00;99943.34;4994462;28;20267;-83
2022/01/19 10:24:42;;;;;;;14.50;8.93;;;;;;;4.76;100.00;99934.50;4993927;28;20218;-83
2022/01/19 10:27:29;;;;;;;14.63;8.50;;;;;;;4.78;100.00;99933.53;4992059;28;20638;-82
2022/01/19 10:30:29;;;;;;;12.93;9.23;;;;;;;4.76;100.00;99922.22;5059603;28;20196;-83
2022/01/19 10:33:02;;;;;;;12.43;9.10;;;;;;;4.19;100.00;99925.50;5085219;28;20211;-82
2022/01/19 10:35:32;;;;;;;12.60;8.80;;;;;;;4.51;100.00;99897.56;5076920;28;20255;-84
2022/01/19 10:38:19;;;;;;;14.97;9.43;;;;;;;4.58;100.00;99920.09;5068167;28;20199;-82
2022/01/19 10:41:08;;;;;;;17.70;9.50;;;;;;;4.80;100.00;99921.22;5151021;27;20233;-83
2022/01/19 10:43:39;;;;;;;12.37;8.60;;;;;;;4.66;100.00;99920.75;5177708;27;20193;-83
2022/01/19 10:46:28;;;;;;;13.60;10.27;;;;;;;4.48;100.00;99918.63;5133419;27;20301;-83
2022/01/19 10:49:03;;;;;;;14.40;9.33;;;;;;;4.57;100.00;99918.41;5134437;27;20191;-82
2022/01/19 10:51:37;;;;;;;18.30;9.57;;;;;;;4.39;100.00;99906.63;5127458;27;20209;-82
2022/01/19 10:54:14;;;;;;;17.93;11.23;;;;;;;4.65;100.00;99905.94;5129856;27;20221;-82
2022/01/19 10:56:48;;;;;;;14.17;10.33;;;;;;;4.57;100.00;99919.25;5129116;27;20351;-83
2022/01/19 10:59:18;;;;;;;15.73;9.87;;;;;;;4.86;100.00;99907.09;5133176;27;20186;-82
2022/01/19 11:01:49;;;;;;;17.27;10.23;;;;;;;4.46;100.00;99902.09;5126345;27;20190;-83
2022/01/19 11:04:24;;;;;;;17.57;9.70;;;;;;;4.53;100.00;99896.59;5148475;27;20217;-83
2022/01/19 11:06:55;;;;;;;15.33;10.03;;;;;;;4.58;100.00;99891.25;5172155;27;20189;-83
2022/01/19 11:09:27;;;;;;;15.90;10.40;;;;;;;4.71;100.00;99886.50;5173814;27;20188;-83
2022/01/19 11:11:59;;;;;;;15.07;9.90;;;;;;;4.60;100.00;99887.66;5169268;27;20200;-82
2022/01/19 11:14:28;;;;;;;15.40;9.70;;;;;;;4.53;100.00;99880.00;5166934;27;20671;-83
2022/01/19 11:16:56;;;;;;;17.27;10.23;;;;;;;4.48;100.00;99876.66;5168478;27;20242;-83
2022/01/19 11:19:27;;;;;;;17.70;10.60;;;;;;;4.51;100.00;99879.19;5173481;27;20220;-83
2022/01/19 11:22:11;;;;;;;16.07;10.73;;;;;;;4.17;100.00;99874.88;5173757;27;20189;-83
2022/01/19 11:24:47;;;;;;;19.50;11.87;;;;;;;4.13;100.00;99856.63;5171524;27;20200;-84
2022/01/19 11:27:16;;;;;;;15.70;10.53;;;;;;;4.27;100.00;99862.38;5173245;27;20200;-84
2022/01/19 11:29:45;;;;;;;15.97;10.43;;;;;;;4.35;100.00;99863.03;5176606;27;20211;-84
2022/01/19 11:32:17;;;;;;;20.43;11.93;;;;;;;4.39;100.00;99858.56;5175321;27;20264;-84
2022/01/19 11:34:50;;;;;;;17.37;11.30;;;;;;;4.38;100.00;99844.59;5175122;27;20295;-84
2022/01/19 11:37:35;;;;;;;21.27;11.70;;;;;;;4.28;100.00;99835.25;5167917;27;20256;-84
2022/01/19 11:40:10;;;;;;;16.03;10.97;;;;;;;4.22;100.00;99833.66;5176076;27;20239;-84
2022/01/19 11:42:41;;;;;;;18.17;12.20;;;;;;;4.01;100.00;99829.00;5172259;27;20188;-84
2022/01/19 11:45:30;;;;;;;19.70;11.37;;;;;;;4.14;100.00;99825.13;5176094;27;20197;-84
2022/01/19 11:48:15;;;;;;;16.60;11.53;;;;;;;3.95;100.00;99827.38;5174755;27;20292;-83
2022/01/19 11:50:47;;;;;;;16.50;11.40;;;;;;;3.89;100.00;99813.59;5169167;27;20196;-84
2022/01/19 11:53:16;;;;;;;13.03;10.53;;;;;;;3.95;100.00;99810.81;5170531;27;20253;-83
2022/01/19 11:56:04;;;;;;;15.37;9.40;;;;;;;3.73;100.00;99805.28;5167422;27;20192;-83
2022/01/19 11:58:32;;;;;;;14.77;9.47;;;;;;;3.70;100.00;99780.03;5166365;27;20189;-84
2022/01/19 12:01:01;;;;;;;14.17;10.67;;;;;;;3.82;100.00;99772.75;5175752;27;20185;-84
2022/01/19 12:03:31;;;;;;;16.70;10.63;;;;;;;3.99;100.00;99766.13;5121656;27;20181;-83
2022/01/19 12:06:33;;;;;;;13.97;10.17;;;;;;;4.02;100.00;99763.44;5176002;27;20242;-84
2022/01/19 12:09:04;;;;;;;15.50;10.20;;;;;;;4.06;100.00;99756.34;5165391;27;20659;-83
2022/01/19 12:11:35;;;;;;;15.10;10.63;;;;;;;4.15;100.00;99765.69;5170475;27;20196;-84
2022/01/19 12:14:10;;;;;;;14.83;10.07;;;;;;;4.23;100.00;99748.84;5175822;27;20277;-84
2022/01/19 12:17:00;;;;;;;14.17;9.30;;;;;;;4.19;100.00;99744.63;5170333;27;20194;-84
2022/01/19 12:19:31;;;;;;;16.00;10.17;;;;;;;4.22;100.00;99741.03;5157056;27;20189;-84
2022/01/19 12:22:11;;;;;;;15.23;10.37;;;;;;;4.17;100.00;99750.81;5172930;27;20193;-84
2022/01/19 12:24:44;;;;;;;13.87;10.57;;;;;;;4.09;100.00;99745.78;5175598;27;20201;-84
2022/01/19 12:27:30;;;;;;;13.67;9.03;;;;;;;4.21;100.00;99744.56;5169428;27;20268;-83
2022/01/19 12:30:08;;;;;;;13.97;10.30;;;;;;;4.09;100.00;99745.78;5169038;27;20207;-84
2022/01/19 12:32:53;;;;;;;14.30;9.70;;;;;;;4.27;100.00;99753.13;5165099;27;20196;-84
2022/01/19 12:35:37;;;;;;;17.77;12.03;;;;;;;4.12;100.00;99743.06;5168445;27;20265;-83
2022/01/19 12:38:19;;;;;;;14.33;10.37;;;;;;;4.06;100.00;99729.28;5179416;27;20220;-84
2022/01/19 12:40:49;;;;;;;14.73;9.77;;;;;;;4.07;100.00;99729.25;5175559;27;20675;-84
2022/01/19 12:43:36;;;;;;;13.67;10.33;;;;;;;4.14;100.00;99729.91;5172090;27;20185;-84
2022/01/19 12:46:10;;;;;;;17.50;10.40;;;;;;;4.13;100.00;99718.56;5173451;27;20200;-83
2022/01/19 12:48:48;;;;;;;15.57;10.20;;;;;;;4.07;100.00;99724.00;5176714;27;20207;-84
2022/01/19 12:51:41;;;;;;;13.90;9.67;;;;;;;4.13;100.00;99717.69;5174949;27;20197;-83
2022/01/19 12:54:16;;;;;;;15.57;10.97;;;;;;;3.96;100.00;99708.59;5175292;27;20213;-83
2022/01/19 12:56:56;;;;;;;16.00;10.60;;;;;;;3.92;100.00;99703.47;5173900;27;20272;-83
2022/01/19 12:59:24;;;;;;;17.17;11.13;;;;;;;3.98;100.00;99685.81;5169931;27;20264;-83
2022/01/19 13:01:54;;;;;;;19.40;12.57;;;;;;;3.97;100.00;99681.47;5167626;27;20201;-83